sensor_id;sensor_type;location;lat;lon;timestamp;P1;durP1;ratioP1;P2;durP2;ratioP2
2019;SDS011;1014;51.960;8.542;2023-05-20T00:00:13;20.80;;;19.40;;
2019;SDS011;1014;51.960;8.542;2023-05-20T00:02:40;21.30;;;19.80;;
2019;SDS011;1014;51.960;8.542;2023-05-20T00:05:07;21.10;;;19.80;;
2019;SDS011;1014;51.960;8.542;2023-05-20T00:07:35;21.90;;;20.50;;
2019;SDS011;1014;51.960;8.542;2023-05-20T00:10:02;21.17;;;19.77;;
2019;SDS011;1014;51.960;8.542;2023-05-20T00:12:30;21.57;;;20.17;;
2019;SDS011;1014;51.960;8.542;2023-05-20T00:14:57;24.03;;;22.33;;
2019;SDS011;1014;51.960;8.542;2023-05-20T00:17:24;21.50;;;20.20;;
2019;SDS011;1014;51.960;8.542;2023-05-20T00:19:52;22.47;;;20.93;;
2019;SDS011;1014;51.960;8.542;2023-05-20T00:22:19;22.00;;;20.50;;
2019;SDS011;1014;51.960;8.542;2023-05-20T00:24:47;22.20;;;20.80;;
2019;SDS011;1014;51.960;8.542;2023-05-20T00:27:14;21.50;;;20.00;;
2019;SDS011;1014;51.960;8.542;2023-05-20T00:29:42;20.73;;;19.43;;
2019;SDS011;1014;51.960;8.542;2023-05-20T00:32:08;20.83;;;19.43;;
2019;SDS011;1014;51.960;8.542;2023-05-20T00:34:35;20.90;;;19.50;;
2019;SDS011;1014;51.960;8.542;2023-05-20T00:37:02;21.53;;;19.97;;
2019;SDS011;1014;51.960;8.542;2023-05-20T00:39:30;21.43;;;19.90;;
2019;SDS011;1014;51.960;8.542;2023-05-20T00:41:58;21.40;;;20.00;;
2019;SDS011;1014;51.960;8.542;2023-05-20T00:44:27;21.20;;;19.70;;
2019;SDS011;1014;51.960;8.542;2023-05-20T00:46:54;20.93;;;19.50;;
2019;SDS011;1014;51.960;8.542;2023-05-20T00:49:21;21.30;;;19.90;;
2019;SDS011;1014;51.960;8.542;2023-05-20T00:51:48;21.80;;;20.30;;
2019;SDS011;1014;51.960;8.542;2023-05-20T00:54:15;22.00;;;20.50;;
2019;SDS011;1014;51.960;8.542;2023-05-20T00:56:42;21.80;;;20.20;;
2019;SDS011;1014;51.960;8.542;2023-05-20T00:59:11;22.03;;;20.53;;
2019;SDS011;1014;51.960;8.542;2023-05-20T01:01:38;22.43;;;20.93;;
2019;SDS011;1014;51.960;8.542;2023-05-20T01:04:06;21.73;;;20.03;;
2019;SDS011;1014;51.960;8.542;2023-05-20T01:06:33;21.63;;;20.23;;
2019;SDS011;1014;51.960;8.542;2023-05-20T01:09:02;20.53;;;19.23;;
2019;SDS011;1014;51.960;8.542;2023-05-20T01:11:30;21.80;;;20.30;;
2019;SDS011;1014;51.960;8.542;2023-05-20T01:14:00;21.17;;;19.77;;
2019;SDS011;1014;51.960;8.542;2023-05-20T01:16:30;21.17;;;19.80;;
2019;SDS011;1014;51.960;8.542;2023-05-20T01:18:58;21.63;;;20.17;;
2019;SDS011;1014;51.960;8.542;2023-05-20T01:21:26;22.63;;;21.53;;
2019;SDS011;1014;51.960;8.542;2023-05-20T01:23:55;21.93;;;20.50;;
2019;SDS011;1014;51.960;8.542;2023-05-20T01:26:22;22.10;;;20.80;;
2019;SDS011;1014;51.960;8.542;2023-05-20T01:28:51;21.17;;;20.10;;
2019;SDS011;1014;51.960;8.542;2023-05-20T01:31:19;23.23;;;21.87;;
2019;SDS011;1014;51.960;8.542;2023-05-20T01:33:50;22.60;;;21.27;;
2019;SDS011;1014;51.960;8.542;2023-05-20T01:36:18;22.27;;;20.70;;
2019;SDS011;1014;51.960;8.542;2023-05-20T01:38:47;21.43;;;20.33;;
2019;SDS011;1014;51.960;8.542;2023-05-20T01:41:16;21.87;;;20.73;;
2019;SDS011;1014;51.960;8.542;2023-05-20T01:43:43;22.93;;;21.63;;
2019;SDS011;1014;51.960;8.542;2023-05-20T01:46:10;22.47;;;21.27;;
2019;SDS011;1014;51.960;8.542;2023-05-20T01:48:38;22.37;;;21.17;;
2019;SDS011;1014;51.960;8.542;2023-05-20T01:51:05;22.10;;;20.90;;
2019;SDS011;1014;51.960;8.542;2023-05-20T01:53:32;22.53;;;21.33;;
2019;SDS011;1014;51.960;8.542;2023-05-20T01:55:59;22.77;;;21.17;;
2019;SDS011;1014;51.960;8.542;2023-05-20T01:58:28;22.70;;;21.40;;
2019;SDS011;1014;51.960;8.542;2023-05-20T02:00:55;21.50;;;20.30;;
2019;SDS011;1014;51.960;8.542;2023-05-20T02:03:22;21.90;;;20.80;;
2019;SDS011;1014;51.960;8.542;2023-05-20T02:05:49;21.43;;;20.23;;
2019;SDS011;1014;51.960;8.542;2023-05-20T02:08:16;22.03;;;20.83;;
2019;SDS011;1014;51.960;8.542;2023-05-20T02:10:43;22.27;;;20.97;;
2019;SDS011;1014;51.960;8.542;2023-05-20T02:13:10;22.20;;;21.00;;
2019;SDS011;1014;51.960;8.542;2023-05-20T02:15:41;22.20;;;20.80;;
2019;SDS011;1014;51.960;8.542;2023-05-20T02:18:08;22.00;;;20.60;;
2019;SDS011;1014;51.960;8.542;2023-05-20T02:20:36;21.43;;;20.33;;
2019;SDS011;1014;51.960;8.542;2023-05-20T02:23:03;22.93;;;21.73;;
2019;SDS011;1014;51.960;8.542;2023-05-20T02:25:30;22.20;;;20.90;;
2019;SDS011;1014;51.960;8.542;2023-05-20T02:27:57;21.60;;;20.50;;
2019;SDS011;1014;51.960;8.542;2023-05-20T02:30:25;22.43;;;20.90;;
2019;SDS011;1014;51.960;8.542;2023-05-20T02:32:54;22.17;;;21.07;;
2019;SDS011;1014;51.960;8.542;2023-05-20T02:35:21;22.03;;;20.63;;
2019;SDS011;1014;51.960;8.542;2023-05-20T02:37:48;21.50;;;20.40;;
2019;SDS011;1014;51.960;8.542;2023-05-20T02:40:15;22.20;;;21.00;;
2019;SDS011;1014;51.960;8.542;2023-05-20T02:42:42;22.40;;;21.10;;
2019;SDS011;1014;51.960;8.542;2023-05-20T02:45:10;21.90;;;20.70;;
2019;SDS011;1014;51.960;8.542;2023-05-20T02:47:37;22.07;;;20.87;;
2019;SDS011;1014;51.960;8.542;2023-05-20T02:50:06;23.43;;;22.13;;
2019;SDS011;1014;51.960;8.542;2023-05-20T02:52:33;21.97;;;20.50;;
2019;SDS011;1014;51.960;8.542;2023-05-20T02:55:01;21.80;;;20.60;;
2019;SDS011;1014;51.960;8.542;2023-05-20T02:57:28;21.63;;;20.43;;
2019;SDS011;1014;51.960;8.542;2023-05-20T02:59:55;22.40;;;21.10;;
2019;SDS011;1014;51.960;8.542;2023-05-20T03:02:22;21.97;;;20.77;;
2019;SDS011;1014;51.960;8.542;2023-05-20T03:04:49;21.33;;;20.10;;
2019;SDS011;1014;51.960;8.542;2023-05-20T03:07:20;22.20;;;20.90;;
2019;SDS011;1014;51.960;8.542;2023-05-20T03:09:47;21.10;;;20.00;;
2019;SDS011;1014;51.960;8.542;2023-05-20T03:12:14;22.63;;;21.20;;
2019;SDS011;1014;51.960;8.542;2023-05-20T03:14:41;21.40;;;20.20;;
2019;SDS011;1014;51.960;8.542;2023-05-20T03:17:08;21.23;;;20.13;;
2019;SDS011;1014;51.960;8.542;2023-05-20T03:19:35;21.53;;;20.43;;
2019;SDS011;1014;51.960;8.542;2023-05-20T03:22:02;22.50;;;21.20;;
2019;SDS011;1014;51.960;8.542;2023-05-20T03:24:31;22.50;;;21.20;;
2019;SDS011;1014;51.960;8.542;2023-05-20T03:26:58;22.83;;;21.50;;
2019;SDS011;1014;51.960;8.542;2023-05-20T03:29:25;21.60;;;20.50;;
2019;SDS011;1014;51.960;8.542;2023-05-20T03:31:52;21.63;;;20.43;;
2019;SDS011;1014;51.960;8.542;2023-05-20T03:34:19;21.73;;;20.50;;
2019;SDS011;1014;51.960;8.542;2023-05-20T03:36:46;21.83;;;20.53;;
2019;SDS011;1014;51.960;8.542;2023-05-20T03:39:13;22.93;;;21.63;;
2019;SDS011;1014;51.960;8.542;2023-05-20T03:41:42;22.30;;;20.90;;
2019;SDS011;1014;51.960;8.542;2023-05-20T03:44:09;22.23;;;20.90;;
2019;SDS011;1014;51.960;8.542;2023-05-20T03:46:36;24.20;;;22.70;;
2019;SDS011;1014;51.960;8.542;2023-05-20T03:49:03;22.87;;;21.47;;
2019;SDS011;1014;51.960;8.542;2023-05-20T03:51:30;22.30;;;20.87;;
2019;SDS011;1014;51.960;8.542;2023-05-20T03:53:57;23.53;;;22.13;;
2019;SDS011;1014;51.960;8.542;2023-05-20T03:56:25;22.23;;;21.00;;
2019;SDS011;1014;51.960;8.542;2023-05-20T03:58:53;23.80;;;22.40;;
2019;SDS011;1014;51.960;8.542;2023-05-20T04:01:20;22.90;;;21.80;;
2019;SDS011;1014;51.960;8.542;2023-05-20T04:03:49;23.87;;;22.47;;
2019;SDS011;1014;51.960;8.542;2023-05-20T04:06:16;22.63;;;21.17;;
2019;SDS011;1014;51.960;8.542;2023-05-20T04:08:43;23.93;;;22.40;;
2019;SDS011;1014;51.960;8.542;2023-05-20T04:11:10;22.80;;;21.50;;
2019;SDS011;1014;51.960;8.542;2023-05-20T04:13:37;23.20;;;21.90;;
2019;SDS011;1014;51.960;8.542;2023-05-20T04:16:06;23.10;;;21.60;;
2019;SDS011;1014;51.960;8.542;2023-05-20T04:18:33;23.40;;;21.87;;
2019;SDS011;1014;51.960;8.542;2023-05-20T04:21:02;23.00;;;21.50;;
2019;SDS011;1014;51.960;8.542;2023-05-20T04:23:30;23.20;;;21.90;;
2019;SDS011;1014;51.960;8.542;2023-05-20T04:25:57;23.37;;;21.97;;
2019;SDS011;1014;51.960;8.542;2023-05-20T04:28:26;23.50;;;22.10;;
2019;SDS011;1014;51.960;8.542;2023-05-20T04:30:57;21.53;;;20.33;;
2019;SDS011;1014;51.960;8.542;2023-05-20T04:33:25;21.63;;;20.43;;
2019;SDS011;1014;51.960;8.542;2023-05-20T04:35:52;22.00;;;20.43;;
2019;SDS011;1014;51.960;8.542;2023-05-20T04:38:22;21.33;;;20.10;;
2019;SDS011;1014;51.960;8.542;2023-05-20T04:40:53;21.50;;;20.40;;
2019;SDS011;1014;51.960;8.542;2023-05-20T04:43:22;21.33;;;20.13;;
2019;SDS011;1014;51.960;8.542;2023-05-20T04:45:49;22.50;;;21.20;;
2019;SDS011;1014;51.960;8.542;2023-05-20T04:48:17;21.70;;;20.40;;
2019;SDS011;1014;51.960;8.542;2023-05-20T04:50:45;21.97;;;20.47;;
2019;SDS011;1014;51.960;8.542;2023-05-20T04:53:13;21.93;;;20.70;;
2019;SDS011;1014;51.960;8.542;2023-05-20T04:55:40;21.60;;;20.33;;
2019;SDS011;1014;51.960;8.542;2023-05-20T04:58:08;22.67;;;21.40;;
2019;SDS011;1014;51.960;8.542;2023-05-20T05:00:39;22.63;;;21.23;;
2019;SDS011;1014;51.960;8.542;2023-05-20T05:03:06;21.10;;;19.93;;
2019;SDS011;1014;51.960;8.542;2023-05-20T05:05:33;21.40;;;20.20;;
2019;SDS011;1014;51.960;8.542;2023-05-20T05:08:02;21.80;;;20.60;;
2019;SDS011;1014;51.960;8.542;2023-05-20T05:10:30;21.33;;;20.13;;
2019;SDS011;1014;51.960;8.542;2023-05-20T05:12:57;21.43;;;20.23;;
2019;SDS011;1014;51.960;8.542;2023-05-20T05:15:24;22.67;;;21.00;;
2019;SDS011;1014;51.960;8.542;2023-05-20T05:17:51;21.87;;;20.50;;
2019;SDS011;1014;51.960;8.542;2023-05-20T05:20:18;22.17;;;20.90;;
2019;SDS011;1014;51.960;8.542;2023-05-20T05:22:46;22.37;;;21.00;;
2019;SDS011;1014;51.960;8.542;2023-05-20T05:25:15;22.97;;;21.40;;
2019;SDS011;1014;51.960;8.542;2023-05-20T05:27:42;21.80;;;20.60;;
2019;SDS011;1014;51.960;8.542;2023-05-20T05:30:10;23.07;;;21.80;;
2019;SDS011;1014;51.960;8.542;2023-05-20T05:32:37;22.27;;;21.03;;
2019;SDS011;1014;51.960;8.542;2023-05-20T05:35:04;21.70;;;20.50;;
2019;SDS011;1014;51.960;8.542;2023-05-20T05:37:31;22.30;;;20.90;;
2019;SDS011;1014;51.960;8.542;2023-05-20T05:39:58;22.20;;;20.90;;
2019;SDS011;1014;51.960;8.542;2023-05-20T05:42:27;21.30;;;20.10;;
2019;SDS011;1014;51.960;8.542;2023-05-20T05:44:54;21.23;;;20.13;;
2019;SDS011;1014;51.960;8.542;2023-05-20T05:47:21;21.13;;;20.03;;
2019;SDS011;1014;51.960;8.542;2023-05-20T05:49:48;20.80;;;19.70;;
2019;SDS011;1014;51.960;8.542;2023-05-20T05:52:15;21.73;;;20.43;;
2019;SDS011;1014;51.960;8.542;2023-05-20T05:54:42;22.30;;;20.20;;
2019;SDS011;1014;51.960;8.542;2023-05-20T05:57:09;22.90;;;21.50;;
2019;SDS011;1014;51.960;8.542;2023-05-20T05:59:38;21.60;;;20.40;;
2019;SDS011;1014;51.960;8.542;2023-05-20T06:02:05;22.47;;;21.20;;
2019;SDS011;1014;51.960;8.542;2023-05-20T06:04:34;21.30;;;20.20;;
2019;SDS011;1014;51.960;8.542;2023-05-20T06:07:01;24.73;;;23.33;;
2019;SDS011;1014;51.960;8.542;2023-05-20T06:09:28;21.30;;;20.10;;
2019;SDS011;1014;51.960;8.542;2023-05-20T06:11:55;21.53;;;20.23;;
2019;SDS011;1014;51.960;8.542;2023-05-20T06:14:22;21.50;;;20.30;;
2019;SDS011;1014;51.960;8.542;2023-05-20T06:16:50;22.57;;;21.13;;
2019;SDS011;1014;51.960;8.542;2023-05-20T06:19:17;21.27;;;20.10;;
2019;SDS011;1014;51.960;8.542;2023-05-20T06:21:44;21.60;;;20.40;;
2019;SDS011;1014;51.960;8.542;2023-05-20T06:24:11;21.97;;;20.47;;
2019;SDS011;1014;51.960;8.542;2023-05-20T06:26:38;21.93;;;20.60;;
2019;SDS011;1014;51.960;8.542;2023-05-20T06:29:05;22.30;;;21.10;;
2019;SDS011;1014;51.960;8.542;2023-05-20T06:31:32;22.53;;;21.10;;
2019;SDS011;1014;51.960;8.542;2023-05-20T06:34:01;21.60;;;20.33;;
2019;SDS011;1014;51.960;8.542;2023-05-20T06:36:28;22.73;;;21.43;;
2019;SDS011;1014;51.960;8.542;2023-05-20T06:38:54;21.70;;;20.40;;
2019;SDS011;1014;51.960;8.542;2023-05-20T06:41:21;22.00;;;20.70;;
2019;SDS011;1014;51.960;8.542;2023-05-20T06:43:49;21.90;;;20.53;;
2019;SDS011;1014;51.960;8.542;2023-05-20T06:46:16;22.67;;;21.30;;
2019;SDS011;1014;51.960;8.542;2023-05-20T06:48:43;22.20;;;20.87;;
2019;SDS011;1014;51.960;8.542;2023-05-20T06:51:11;22.07;;;20.80;;
2019;SDS011;1014;51.960;8.542;2023-05-20T06:53:38;22.10;;;20.80;;
2019;SDS011;1014;51.960;8.542;2023-05-20T06:56:05;22.70;;;21.20;;
2019;SDS011;1014;51.960;8.542;2023-05-20T06:58:32;23.50;;;22.00;;
2019;SDS011;1014;51.960;8.542;2023-05-20T07:00:59;23.50;;;22.10;;
2019;SDS011;1014;51.960;8.542;2023-05-20T07:03:26;22.77;;;21.33;;
2019;SDS011;1014;51.960;8.542;2023-05-20T07:05:53;23.87;;;22.47;;
2019;SDS011;1014;51.960;8.542;2023-05-20T07:08:22;24.30;;;22.80;;
2019;SDS011;1014;51.960;8.542;2023-05-20T07:10:49;23.90;;;22.30;;
2019;SDS011;1014;51.960;8.542;2023-05-20T07:13:16;24.33;;;22.90;;
2019;SDS011;1014;51.960;8.542;2023-05-20T07:15:44;24.83;;;23.23;;
2019;SDS011;1014;51.960;8.542;2023-05-20T07:18:12;24.57;;;23.07;;
2019;SDS011;1014;51.960;8.542;2023-05-20T07:20:40;25.70;;;24.10;;
2019;SDS011;1014;51.960;8.542;2023-05-20T07:23:07;24.83;;;23.23;;
2019;SDS011;1014;51.960;8.542;2023-05-20T07:25:35;24.30;;;22.80;;
2019;SDS011;1014;51.960;8.542;2023-05-20T07:28:02;24.47;;;22.70;;
2019;SDS011;1014;51.960;8.542;2023-05-20T07:30:29;25.30;;;23.60;;
2019;SDS011;1014;51.960;8.542;2023-05-20T07:32:57;24.20;;;22.60;;
2019;SDS011;1014;51.960;8.542;2023-05-20T07:35:24;26.17;;;24.50;;
2019;SDS011;1014;51.960;8.542;2023-05-20T07:37:51;25.60;;;23.80;;
2019;SDS011;1014;51.960;8.542;2023-05-20T07:40:18;25.63;;;23.90;;
2019;SDS011;1014;51.960;8.542;2023-05-20T07:42:46;26.67;;;25.07;;
2019;SDS011;1014;51.960;8.542;2023-05-20T07:45:13;25.43;;;23.83;;
2019;SDS011;1014;51.960;8.542;2023-05-20T07:47:40;25.33;;;23.83;;
2019;SDS011;1014;51.960;8.542;2023-05-20T07:50:07;26.30;;;24.50;;
2019;SDS011;1014;51.960;8.542;2023-05-20T07:52:34;25.07;;;23.47;;
2019;SDS011;1014;51.960;8.542;2023-05-20T07:55:02;25.10;;;23.60;;
2019;SDS011;1014;51.960;8.542;2023-05-20T07:57:29;26.70;;;25.10;;
2019;SDS011;1014;51.960;8.542;2023-05-20T07:59:57;25.40;;;23.80;;
2019;SDS011;1014;51.960;8.542;2023-05-20T08:02:24;25.90;;;24.30;;
2019;SDS011;1014;51.960;8.542;2023-05-20T08:04:51;25.87;;;24.37;;
2019;SDS011;1014;51.960;8.542;2023-05-20T08:07:18;25.67;;;24.13;;
2019;SDS011;1014;51.960;8.542;2023-05-20T08:09:46;24.80;;;23.30;;
2019;SDS011;1014;51.960;8.542;2023-05-20T08:12:13;24.90;;;23.50;;
2019;SDS011;1014;51.960;8.542;2023-05-20T08:14:39;27.20;;;25.50;;
2019;SDS011;1014;51.960;8.542;2023-05-20T08:17:08;26.17;;;24.23;;
2019;SDS011;1014;51.960;8.542;2023-05-20T08:19:36;25.67;;;24.03;;
2019;SDS011;1014;51.960;8.542;2023-05-20T08:22:03;24.70;;;23.00;;
2019;SDS011;1014;51.960;8.542;2023-05-20T08:24:31;25.20;;;23.70;;
2019;SDS011;1014;51.960;8.542;2023-05-20T08:26:58;26.50;;;24.70;;
2019;SDS011;1014;51.960;8.542;2023-05-20T08:29:26;25.60;;;23.80;;
2019;SDS011;1014;51.960;8.542;2023-05-20T08:31:53;25.20;;;23.60;;
2019;SDS011;1014;51.960;8.542;2023-05-20T08:34:21;25.90;;;24.30;;
2019;SDS011;1014;51.960;8.542;2023-05-20T08:36:48;24.10;;;22.70;;
2019;SDS011;1014;51.960;8.542;2023-05-20T08:39:16;26.50;;;24.80;;
2019;SDS011;1014;51.960;8.542;2023-05-20T08:41:44;25.63;;;24.13;;
2019;SDS011;1014;51.960;8.542;2023-05-20T08:44:11;25.10;;;23.60;;
2019;SDS011;1014;51.960;8.542;2023-05-20T08:46:38;24.50;;;23.10;;
2019;SDS011;1014;51.960;8.542;2023-05-20T08:49:06;23.87;;;22.57;;
2019;SDS011;1014;51.960;8.542;2023-05-20T08:51:35;24.80;;;23.40;;
2019;SDS011;1014;51.960;8.542;2023-05-20T08:54:02;26.57;;;25.03;;
2019;SDS011;1014;51.960;8.542;2023-05-20T08:56:30;24.87;;;23.47;;
2019;SDS011;1014;51.960;8.542;2023-05-20T08:58:57;25.53;;;24.03;;
2019;SDS011;1014;51.960;8.542;2023-05-20T09:01:24;24.83;;;23.37;;
2019;SDS011;1014;51.960;8.542;2023-05-20T09:03:51;24.00;;;22.67;;
2019;SDS011;1014;51.960;8.542;2023-05-20T09:06:18;25.70;;;24.20;;
2019;SDS011;1014;51.960;8.542;2023-05-20T09:08:48;23.53;;;22.13;;
2019;SDS011;1014;51.960;8.542;2023-05-20T09:11:16;25.30;;;23.70;;
2019;SDS011;1014;51.960;8.542;2023-05-20T09:13:42;25.90;;;24.40;;
2019;SDS011;1014;51.960;8.542;2023-05-20T09:16:10;23.47;;;22.17;;
2019;SDS011;1014;51.960;8.542;2023-05-20T09:18:37;23.90;;;22.60;;
2019;SDS011;1014;51.960;8.542;2023-05-20T09:21:05;23.87;;;22.47;;
2019;SDS011;1014;51.960;8.542;2023-05-20T09:23:32;23.67;;;22.27;;
2019;SDS011;1014;51.960;8.542;2023-05-20T09:26:00;23.20;;;21.90;;
2019;SDS011;1014;51.960;8.542;2023-05-20T09:28:27;24.03;;;22.60;;
2019;SDS011;1014;51.960;8.542;2023-05-20T09:30:58;24.23;;;22.83;;
2019;SDS011;1014;51.960;8.542;2023-05-20T09:33:26;23.40;;;22.10;;
2019;SDS011;1014;51.960;8.542;2023-05-20T09:36:00;23.27;;;21.93;;
2019;SDS011;1014;51.960;8.542;2023-05-20T09:38:27;22.47;;;21.13;;
2019;SDS011;1014;51.960;8.542;2023-05-20T09:41:00;22.93;;;21.63;;
2019;SDS011;1014;51.960;8.542;2023-05-20T09:43:28;23.63;;;22.20;;
2019;SDS011;1014;51.960;8.542;2023-05-20T09:45:55;23.83;;;22.53;;
2019;SDS011;1014;51.960;8.542;2023-05-20T09:48:24;22.47;;;21.27;;
2019;SDS011;1014;51.960;8.542;2023-05-20T09:50:52;22.87;;;21.57;;
2019;SDS011;1014;51.960;8.542;2023-05-20T09:53:19;22.50;;;21.20;;
2019;SDS011;1014;51.960;8.542;2023-05-20T09:55:47;24.63;;;23.13;;
2019;SDS011;1014;51.960;8.542;2023-05-20T09:58:16;23.20;;;21.80;;
2019;SDS011;1014;51.960;8.542;2023-05-20T10:00:45;23.33;;;22.03;;
2019;SDS011;1014;51.960;8.542;2023-05-20T10:03:12;23.70;;;22.30;;
2019;SDS011;1014;51.960;8.542;2023-05-20T10:05:40;22.03;;;20.73;;
2019;SDS011;1014;51.960;8.542;2023-05-20T10:08:16;24.80;;;23.30;;
2019;SDS011;1014;51.960;8.542;2023-05-20T10:10:47;24.33;;;22.73;;
2019;SDS011;1014;51.960;8.542;2023-05-20T10:13:21;23.47;;;21.97;;
2019;SDS011;1014;51.960;8.542;2023-05-20T10:15:53;23.90;;;22.37;;
2019;SDS011;1014;51.960;8.542;2023-05-20T10:18:24;25.47;;;23.77;;
2019;SDS011;1014;51.960;8.542;2023-05-20T10:20:55;24.10;;;22.60;;
2019;SDS011;1014;51.960;8.542;2023-05-20T10:23:22;23.90;;;22.50;;
2019;SDS011;1014;51.960;8.542;2023-05-20T10:25:50;23.80;;;22.40;;
2019;SDS011;1014;51.960;8.542;2023-05-20T10:28:28;25.40;;;23.90;;
2019;SDS011;1014;51.960;8.542;2023-05-20T10:30:55;24.20;;;22.50;;
2019;SDS011;1014;51.960;8.542;2023-05-20T10:33:23;24.40;;;22.93;;
2019;SDS011;1014;51.960;8.542;2023-05-20T10:35:51;25.07;;;23.57;;
2019;SDS011;1014;51.960;8.542;2023-05-20T10:38:18;24.30;;;22.90;;
2019;SDS011;1014;51.960;8.542;2023-05-20T10:40:46;25.80;;;24.10;;
2019;SDS011;1014;51.960;8.542;2023-05-20T10:43:13;24.73;;;23.23;;
2019;SDS011;1014;51.960;8.542;2023-05-20T10:46:02;24.90;;;23.40;;
2019;SDS011;1014;51.960;8.542;2023-05-20T10:48:45;24.47;;;23.07;;
2019;SDS011;1014;51.960;8.542;2023-05-20T10:51:13;23.10;;;21.73;;
2019;SDS011;1014;51.960;8.542;2023-05-20T10:53:41;23.87;;;22.47;;
2019;SDS011;1014;51.960;8.542;2023-05-20T10:56:15;24.70;;;23.10;;
2019;SDS011;1014;51.960;8.542;2023-05-20T10:58:42;25.90;;;24.10;;
2019;SDS011;1014;51.960;8.542;2023-05-20T11:01:11;25.57;;;23.90;;
2019;SDS011;1014;51.960;8.542;2023-05-20T11:03:39;24.30;;;22.90;;
2019;SDS011;1014;51.960;8.542;2023-05-20T11:06:10;24.40;;;22.90;;
2019;SDS011;1014;51.960;8.542;2023-05-20T11:08:37;24.70;;;23.20;;
2019;SDS011;1014;51.960;8.542;2023-05-20T11:11:04;25.30;;;23.67;;
2019;SDS011;1014;51.960;8.542;2023-05-20T11:13:31;24.13;;;22.63;;
2019;SDS011;1014;51.960;8.542;2023-05-20T11:15:59;25.87;;;24.23;;
2019;SDS011;1014;51.960;8.542;2023-05-20T11:18:28;25.90;;;24.10;;
2019;SDS011;1014;51.960;8.542;2023-05-20T11:20:56;25.90;;;24.20;;
2019;SDS011;1014;51.960;8.542;2023-05-20T11:23:23;25.30;;;23.70;;
2019;SDS011;1014;51.960;8.542;2023-05-20T11:25:50;25.07;;;23.33;;
2019;SDS011;1014;51.960;8.542;2023-05-20T11:28:17;25.63;;;24.03;;
2019;SDS011;1014;51.960;8.542;2023-05-20T11:30:45;24.63;;;23.03;;
2019;SDS011;1014;51.960;8.542;2023-05-20T11:33:13;26.57;;;24.97;;
2019;SDS011;1014;51.960;8.542;2023-05-20T11:35:44;27.03;;;25.00;;
2019;SDS011;1014;51.960;8.542;2023-05-20T11:38:12;26.10;;;24.40;;
2019;SDS011;1014;51.960;8.542;2023-05-20T11:40:41;26.30;;;24.70;;
2019;SDS011;1014;51.960;8.542;2023-05-20T11:43:09;24.70;;;23.30;;
2019;SDS011;1014;51.960;8.542;2023-05-20T11:45:40;25.90;;;24.40;;
2019;SDS011;1014;51.960;8.542;2023-05-20T11:48:07;24.30;;;22.90;;
2019;SDS011;1014;51.960;8.542;2023-05-20T11:50:35;27.60;;;25.77;;
2019;SDS011;1014;51.960;8.542;2023-05-20T11:53:06;25.10;;;23.57;;
2019;SDS011;1014;51.960;8.542;2023-05-20T11:55:33;27.80;;;26.10;;
2019;SDS011;1014;51.960;8.542;2023-05-20T11:58:00;27.13;;;25.60;;
2019;SDS011;1014;51.960;8.542;2023-05-20T12:00:28;26.33;;;24.77;;
2019;SDS011;1014;51.960;8.542;2023-05-20T12:02:55;26.50;;;24.90;;
2019;SDS011;1014;51.960;8.542;2023-05-20T12:05:22;26.00;;;24.50;;
2019;SDS011;1014;51.960;8.542;2023-05-20T12:07:49;26.23;;;24.53;;
2019;SDS011;1014;51.960;8.542;2023-05-20T12:10:18;25.83;;;24.43;;
2019;SDS011;1014;51.960;8.542;2023-05-20T12:12:45;26.50;;;25.00;;
2019;SDS011;1014;51.960;8.542;2023-05-20T12:15:12;25.30;;;23.70;;
2019;SDS011;1014;51.960;8.542;2023-05-20T12:17:45;26.00;;;24.47;;
2019;SDS011;1014;51.960;8.542;2023-05-20T12:20:13;26.77;;;25.07;;
2019;SDS011;1014;51.960;8.542;2023-05-20T12:22:41;24.77;;;23.20;;
2019;SDS011;1014;51.960;8.542;2023-05-20T12:25:10;24.53;;;23.13;;
2019;SDS011;1014;51.960;8.542;2023-05-20T12:27:40;26.23;;;24.63;;
2019;SDS011;1014;51.960;8.542;2023-05-20T12:30:07;25.30;;;23.70;;
2019;SDS011;1014;51.960;8.542;2023-05-20T12:32:34;25.50;;;23.90;;
2019;SDS011;1014;51.960;8.542;2023-05-20T12:35:01;24.83;;;23.33;;
2019;SDS011;1014;51.960;8.542;2023-05-20T12:37:28;24.90;;;23.43;;
2019;SDS011;1014;51.960;8.542;2023-05-20T12:39:56;25.60;;;23.80;;
2019;SDS011;1014;51.960;8.542;2023-05-20T12:42:23;24.87;;;23.40;;
2019;SDS011;1014;51.960;8.542;2023-05-20T12:44:51;24.67;;;23.27;;
2019;SDS011;1014;51.960;8.542;2023-05-20T12:47:19;25.37;;;23.80;;
2019;SDS011;1014;51.960;8.542;2023-05-20T12:49:45;25.50;;;23.90;;
2019;SDS011;1014;51.960;8.542;2023-05-20T12:52:13;24.37;;;22.73;;
2019;SDS011;1014;51.960;8.542;2023-05-20T12:54:40;25.30;;;23.73;;
2019;SDS011;1014;51.960;8.542;2023-05-20T12:57:07;24.10;;;22.70;;
2019;SDS011;1014;51.960;8.542;2023-05-20T12:59:33;23.20;;;21.80;;
2019;SDS011;1014;51.960;8.542;2023-05-20T13:02:02;23.40;;;22.10;;
2019;SDS011;1014;51.960;8.542;2023-05-20T13:04:29;23.90;;;22.50;;
2019;SDS011;1014;51.960;8.542;2023-05-20T13:06:56;25.47;;;23.87;;
2019;SDS011;1014;51.960;8.542;2023-05-20T13:09:23;24.47;;;22.77;;
2019;SDS011;1014;51.960;8.542;2023-05-20T13:11:50;23.57;;;21.93;;
2019;SDS011;1014;51.960;8.542;2023-05-20T13:14:17;25.37;;;23.40;;
2019;SDS011;1014;51.960;8.542;2023-05-20T13:16:45;24.30;;;22.80;;
2019;SDS011;1014;51.960;8.542;2023-05-20T13:19:13;24.63;;;23.13;;
2019;SDS011;1014;51.960;8.542;2023-05-20T13:21:40;23.70;;;22.40;;
2019;SDS011;1014;51.960;8.542;2023-05-20T13:24:08;24.87;;;23.37;;
2019;SDS011;1014;51.960;8.542;2023-05-20T13:26:35;24.10;;;22.60;;
2019;SDS011;1014;51.960;8.542;2023-05-20T13:29:03;25.03;;;23.47;;
2019;SDS011;1014;51.960;8.542;2023-05-20T13:31:30;24.40;;;22.90;;
2019;SDS011;1014;51.960;8.542;2023-05-20T13:33:57;25.33;;;23.83;;
2019;SDS011;1014;51.960;8.542;2023-05-20T13:36:26;25.37;;;23.77;;
2019;SDS011;1014;51.960;8.542;2023-05-20T13:38:53;24.60;;;23.17;;
2019;SDS011;1014;51.960;8.542;2023-05-20T13:41:20;25.03;;;23.33;;
2019;SDS011;1014;51.960;8.542;2023-05-20T13:43:47;24.73;;;23.10;;
2019;SDS011;1014;51.960;8.542;2023-05-20T13:46:15;25.23;;;23.53;;
2019;SDS011;1014;51.960;8.542;2023-05-20T13:48:42;24.10;;;22.70;;
2019;SDS011;1014;51.960;8.542;2023-05-20T13:51:09;24.70;;;23.20;;
2019;SDS011;1014;51.960;8.542;2023-05-20T13:53:38;25.50;;;23.80;;
2019;SDS011;1014;51.960;8.542;2023-05-20T13:56:05;25.90;;;24.30;;
2019;SDS011;1014;51.960;8.542;2023-05-20T13:58:34;25.30;;;23.80;;
2019;SDS011;1014;51.960;8.542;2023-05-20T14:01:01;25.07;;;23.60;;
2019;SDS011;1014;51.960;8.542;2023-05-20T14:03:28;24.13;;;22.73;;
2019;SDS011;1014;51.960;8.542;2023-05-20T14:05:57;24.33;;;22.70;;
2019;SDS011;1014;51.960;8.542;2023-05-20T14:08:24;24.10;;;22.70;;
2019;SDS011;1014;51.960;8.542;2023-05-20T14:10:52;22.60;;;21.20;;
2019;SDS011;1014;51.960;8.542;2023-05-20T14:13:19;24.30;;;22.80;;
2019;SDS011;1014;51.960;8.542;2023-05-20T14:15:46;23.63;;;22.23;;
2019;SDS011;1014;51.960;8.542;2023-05-20T14:18:14;24.53;;;23.00;;
2019;SDS011;1014;51.960;8.542;2023-05-20T14:20:41;23.57;;;22.03;;
2019;SDS011;1014;51.960;8.542;2023-05-20T14:23:08;23.73;;;22.33;;
2019;SDS011;1014;51.960;8.542;2023-05-20T14:25:36;23.80;;;22.20;;
2019;SDS011;1014;51.960;8.542;2023-05-20T14:28:05;22.70;;;21.23;;
2019;SDS011;1014;51.960;8.542;2023-05-20T14:30:32;23.27;;;21.87;;
2019;SDS011;1014;51.960;8.542;2023-05-20T14:32:59;23.13;;;21.63;;
2019;SDS011;1014;51.960;8.542;2023-05-20T14:35:26;23.40;;;22.00;;
2019;SDS011;1014;51.960;8.542;2023-05-20T14:37:54;23.83;;;22.33;;
2019;SDS011;1014;51.960;8.542;2023-05-20T14:40:21;23.80;;;22.20;;
2019;SDS011;1014;51.960;8.542;2023-05-20T14:42:48;23.40;;;21.77;;
2019;SDS011;1014;51.960;8.542;2023-05-20T14:45:17;24.53;;;23.03;;
2019;SDS011;1014;51.960;8.542;2023-05-20T14:47:44;23.30;;;21.90;;
2019;SDS011;1014;51.960;8.542;2023-05-20T14:50:11;24.20;;;22.70;;